Time;durP1;ratioP1;P1;durP2;ratioP2;P2;SDS_P1;SDS_P2;PMS_P1;PMS_P2;Temp;Humidity;BMP_temperature;BMP_pressure;BME280_temperature;BME280_humidity;BME280_pressure;Samples;Min_cycle;Max_cycle;Signal;HPM_P1;HPM_P2
2022/01/26 00:07:20;;;;;;;;;;;;;;;11.74;64.74;102493.53;4900688;28;120391;-87
2022/01/26 00:09:46;;;;;;;21.63;9.95;;;;;;;11.76;63.81;102487.63;4903224;28;120568;-82
2022/01/26 00:12:12;;;;;;;23.08;9.65;;;;;;;11.70;63.34;102476.31;4899846;28;120880;-86
2022/01/26 00:14:42;;;;;;;20.63;8.88;;;;;;;11.71;64.24;102488.09;4905292;28;120512;-86
2022/01/26 00:17:11;;;;;;;25.52;10.23;;;;;;;11.71;64.61;102483.38;4898251;28;122908;-84
2022/01/26 00:22:22;;;;;;;30.98;13.57;;;;;;;11.66;63.92;102465.38;4905894;28;122007;-86
2022/01/26 00:25:07;;;;;;;22.33;9.45;;;;;;;11.72;63.09;102473.94;4918020;28;122923;-87
2022/01/26 00:27:50;;;;;;;19.13;9.30;;;;;;;11.71;63.61;102477.88;4904949;28;120770;-87
2022/01/26 00:38:39;;;;;;;20.70;10.55;;;;;;;11.71;63.15;102466.09;4925796;28;122339;-87
2022/01/26 00:41:10;;;;;;;17.73;8.43;;;;;;;11.72;63.68;102462.16;4937973;28;119592;-85
2022/01/26 00:43:42;;;;;;;17.65;7.95;;;;;;;11.67;63.79;102469.69;4906515;28;119958;-87
2022/01/26 00:46:08;;;;;;;18.70;8.15;;;;;;;11.54;62.93;102443.94;4888354;28;122988;-88
2022/01/26 00:48:37;;;;;;;13.30;7.45;;;;;;;11.59;63.22;102442.69;4905579;28;120003;-86
2022/01/26 00:51:05;;;;;;;15.02;7.93;;;;;;;11.66;63.93;102459.88;4921490;28;120590;-87
2022/01/26 00:53:36;;;;;;;21.48;8.02;;;;;;;11.58;63.31;102444.66;4907859;28;122074;-87
2022/01/26 00:56:20;;;;;;;18.85;7.45;;;;;;;11.60;63.46;102447.03;4934209;28;119980;-86
2022/01/26 00:58:46;;;;;;;19.08;8.15;;;;;;;11.53;62.75;102434.13;4890945;28;122335;-86
2022/01/26 01:01:12;;;;;;;15.90;8.13;;;;;;;11.60;62.11;102447.03;4911069;28;120036;-87
2022/01/26 01:03:43;;;;;;;20.98;8.40;;;;;;;11.52;61.89;102438.06;4891030;28;122143;-86
2022/01/26 01:08:41;;;;;;;19.58;7.72;;;;;;;11.52;62.39;102440.06;4894006;28;120102;-86
2022/01/26 01:11:08;;;;;;;17.25;7.95;;;;;;;11.43;62.12;102432.31;4908703;28;122964;-86
2022/01/26 01:13:39;;;;;;;13.85;7.13;;;;;;;11.31;61.97;102410.88;4912373;28;120576;-89
2022/01/26 01:16:07;;;;;;;19.50;7.22;;;;;;;11.50;63.29;102432.22;4910644;28;119657;-90
2022/01/26 01:31:57;;;;;;;13.98;7.03;;;;;;;11.51;63.42;102420.03;4909842;28;119916;-89
2022/01/26 01:34:39;;;;;;;14.05;7.68;;;;;;;11.47;62.63;102419.31;4927285;28;123973;-85
2022/01/26 01:37:08;;;;;;;14.40;7.70;;;;;;;11.40;62.14;102411.19;4925207;28;119861;-87
2022/01/26 01:39:37;;;;;;;16.98;7.93;;;;;;;11.48;61.71;102415.38;4894153;28;122409;-86
2022/01/26 01:42:05;;;;;;;15.52;7.97;;;;;;;11.40;62.42;102402.94;4910924;28;120120;-91
2022/01/26 01:44:31;;;;;;;13.27;7.35;;;;;;;11.40;63.90;102410.41;4900091;28;119614;-87
2022/01/26 01:46:57;;;;;;;16.67;8.93;;;;;;;11.49;63.01;102416.91;4892953;28;125504;-88
2022/01/26 01:49:24;;;;;;;14.45;8.20;;;;;;;11.44;62.88;102391.88;4911852;28;120173;-89
2022/01/26 01:51:57;;;;;;;17.00;8.90;;;;;;;11.50;62.84;102407.47;4911774;28;120142;-90
2022/01/26 01:54:22;;;;;;;17.08;8.52;;;;;;;11.48;62.92;102400.84;4893615;28;121600;-84
2022/01/26 01:56:54;;;;;;;16.70;9.02;;;;;;;11.50;62.95;102396.50;4938413;28;119996;-86
2022/01/26 01:59:26;;;;;;;20.17;9.45;;;;;;;11.18;62.37;102363.22;4911082;28;120045;-88
2022/01/26 02:01:52;;;;;;;21.85;10.25;;;;;;;11.37;61.91;102390.81;4911725;28;119980;-88
2022/01/26 02:04:18;;;;;;;21.77;9.80;;;;;;;11.40;62.69;102393.91;4940273;28;119778;-89
2022/01/26 02:06:44;;;;;;;21.80;10.82;;;;;;;11.36;62.57;102381.00;4913397;28;119969;-86
2022/01/26 02:09:11;;;;;;;18.48;10.13;;;;;;;11.30;62.08;102370.88;4921882;28;120347;-87
2022/01/26 02:11:51;;;;;;;21.45;10.95;;;;;;;11.40;61.96;102391.94;4893077;28;121751;-89
2022/01/26 02:14:24;;;;;;;23.63;11.73;;;;;;;11.32;62.38;102388.50;4933124;28;123379;-89
2022/01/26 02:52:10;;;;;;;30.27;16.55;;;;;;;11.39;64.23;102354.66;4916925;28;122846;-84
2022/01/26 03:02:45;;;;;;;34.28;16.42;;;;;;;11.44;65.52;102337.72;4909021;28;120468;-87
2022/01/26 03:05:13;;;;;;;38.97;20.20;;;;;;;11.36;63.88;102319.78;4909433;28;120431;-86
2022/01/26 03:07:48;;;;;;;39.50;20.55;;;;;;;11.46;63.21;102326.28;4912388;28;119844;-88
2022/01/26 03:10:21;;;;;;;35.30;17.70;;;;;;;11.41;64.57;102333.03;4875497;28;122820;-89
2022/01/26 03:12:56;;;;;;;37.42;19.02;;;;;;;11.46;63.68;102329.03;4893692;28;123288;-89
2022/01/26 03:15:28;;;;;;;30.98;17.75;;;;;;;11.40;64.39;102309.50;4898646;28;120112;-87
2022/01/26 03:20:19;;;;;;;33.33;20.13;;;;;;;11.37;62.90;102297.38;4892071;28;119787;-87
2022/01/26 03:28:26;;;;;;;35.58;19.25;;;;;;;11.40;63.55;102304.00;4908276;28;121477;-91
2022/01/26 03:35:53;;;;;;;35.30;19.88;;;;;;;11.48;63.25;102305.44;4925241;28;119642;-88
2022/01/26 03:38:26;;;;;;;35.28;20.70;;;;;;;11.47;62.94;102306.63;4912224;28;120085;-88
2022/01/26 03:41:18;;;;;;;41.20;20.88;;;;;;;11.42;62.60;102301.63;4905995;28;120496;-87
2022/01/26 03:43:43;;;;;;;38.33;21.17;;;;;;;11.41;63.57;102297.31;4905818;28;119982;-86
2022/01/26 03:46:09;;;;;;;32.53;17.70;;;;;;;11.45;64.87;102300.78;4907850;28;122541;-89
2022/01/26 03:48:34;;;;;;;35.35;20.23;;;;;;;11.31;63.72;102282.53;4892667;28;121039;-88
2022/01/26 03:51:01;;;;;;;39.83;20.38;;;;;;;11.48;64.09;102299.19;4906902;28;119892;-88
2022/01/26 03:53:27;;;;;;;44.17;22.58;;;;;;;11.39;62.65;102291.47;4925394;28;123753;-86
2022/01/26 03:55:53;;;;;;;39.53;22.10;;;;;;;11.45;63.08;102302.75;4908256;28;119854;-88
2022/01/26 03:58:18;;;;;;;41.35;22.58;;;;;;;11.40;62.69;102309.50;4906516;28;120028;-89
2022/01/26 04:00:47;;;;;;;38.90;21.42;;;;;;;11.37;64.11;102297.38;4927746;28;124015;-85
2022/01/26 04:03:13;;;;;;;46.10;24.27;;;;;;;11.26;63.06;102272.03;4908677;28;121666;-87
2022/01/26 04:05:38;;;;;;;39.80;23.38;;;;;;;11.32;63.47;102277.81;4909022;28;119857;-89
2022/01/26 04:08:14;;;;;;;42.60;22.98;;;;;;;11.34;63.39;102276.22;4891496;28;119888;-87
2022/01/26 04:13:05;;;;;;;47.53;27.83;;;;;;;11.26;61.73;102268.50;4908101;28;120483;-87
2022/01/26 04:15:34;;;;;;;52.50;28.27;;;;;;;11.25;62.14;102269.72;4891265;28;120321;-89
2022/01/26 04:18:01;;;;;;;48.55;27.85;;;;;;;11.18;62.76;102264.31;4909951;28;120997;-92
2022/01/26 04:20:31;;;;;;;56.22;29.52;;;;;;;11.15;61.84;102260.44;4891230;28;122858;-88
2022/01/26 04:23:12;;;;;;;52.63;28.52;;;;;;;11.02;62.53;102240.22;4912652;28;119781;-90
2022/01/26 04:25:40;;;;;;;51.17;28.77;;;;;;;11.01;62.52;102233.19;4892722;28;123787;-90
2022/01/26 04:28:10;;;;;;;48.53;27.42;;;;;;;11.15;62.90;102251.44;4888009;28;121757;-90
2022/01/26 04:30:36;;;;;;;55.25;30.08;;;;;;;11.06;62.01;102235.47;4939096;28;121942;-88
2022/01/26 04:33:04;;;;;;;49.00;28.05;;;;;;;11.15;62.28;102259.66;4914013;28;120409;-89
2022/01/26 04:35:34;;;;;;;45.03;23.60;;;;;;;11.23;64.32;102275.63;4889982;28;119772;-90
2022/01/26 04:38:24;;;;;;;49.70;28.67;;;;;;;11.24;63.19;102276.41;4891969;28;121988;-89
2022/01/26 04:41:01;;;;;;;47.72;29.30;;;;;;;11.11;62.59;102259.69;4890665;28;123372;-87
2022/01/26 04:43:31;;;;;;;46.65;29.27;;;;;;;11.20;62.39;102270.19;4879697;28;119916;-89
2022/01/26 04:45:57;;;;;;;46.08;25.45;;;;;;;11.21;63.66;102247.00;4931277;28;121320;-89
2022/01/26 04:48:25;;;;;;;48.13;28.58;;;;;;;11.14;62.96;102238.91;4896100;28;119856;-89
2022/01/26 04:50:51;;;;;;;43.90;25.75;;;;;;;11.16;63.97;102248.25;4895288;28;122090;-87
2022/01/26 04:53:17;;;;;;;44.83;25.67;;;;;;;11.16;64.17;102250.25;4895193;28;123167;-89
2022/01/26 04:55:43;;;;;;;40.70;24.77;;;;;;;11.04;63.46;102224.13;4896332;28;119978;-89
2022/01/26 04:58:09;;;;;;;39.90;24.75;;;;;;;11.20;64.09;102240.75;4909238;28;119861;-87
2022/01/26 05:00:35;;;;;;;36.15;22.98;;;;;;;11.18;63.56;102234.13;4925124;28;123415;-83
2022/01/26 05:03:00;;;;;;;35.65;22.73;;;;;;;11.20;63.14;102234.47;4912760;28;119664;-89
2022/01/26 05:05:27;;;;;;;40.58;22.23;;;;;;;11.18;62.89;102218.41;4895706;28;125043;-89
2022/01/26 05:07:52;;;;;;;39.28;22.27;;;;;;;11.27;62.53;102228.84;4899205;28;122605;-89
2022/01/26 05:10:18;;;;;;;34.67;21.08;;;;;;;11.25;61.75;102220.25;4908538;28;123092;-88
2022/01/26 05:12:44;;;;;;;36.45;19.75;;;;;;;11.16;61.80;102226.28;4894651;28;123260;-89
2022/01/26 05:15:14;;;;;;;37.03;21.13;;;;;;;11.26;62.33;102239.06;4894612;28;119710;-88
2022/01/26 05:17:41;;;;;;;33.13;19.00;;;;;;;11.24;63.73;102238.72;4930757;28;119959;-90
2022/01/26 05:20:09;;;;;;;35.50;21.73;;;;;;;11.15;62.78;102205.53;4940301;28;120501;-88
2022/01/26 05:22:36;;;;;;;38.45;21.95;;;;;;;11.29;61.87;102220.97;4892707;28;120721;-89
2022/01/26 05:25:03;;;;;;;42.15;22.95;;;;;;;11.19;62.02;102206.22;4910663;28;119658;-90
2022/01/26 05:27:32;;;;;;;40.00;24.10;;;;;;;11.18;61.55;102192.91;4912345;28;120258;-90
2022/01/26 05:29:59;;;;;;;41.25;23.80;;;;;;;11.05;62.97;102176.25;4913144;28;119817;-87
2022/01/26 05:32:25;;;;;;;39.03;24.40;;;;;;;10.98;62.92;102168.13;4909928;28;123427;-88
2022/01/26 05:34:51;;;;;;;43.35;24.58;;;;;;;11.11;62.25;102187.53;4913247;28;119631;-88
2022/01/26 05:37:17;;;;;;;43.75;26.52;;;;;;;10.81;61.38;102153.47;4875619;28;122557;-86
2022/01/26 05:39:43;;;;;;;40.67;22.45;;;;;;;11.04;63.20;102180.97;4892574;28;122664;-87
2022/01/26 05:42:11;;;;;;;43.95;25.67;;;;;;;11.02;63.10;102191.59;4943783;28;120073;-86
2022/01/26 05:44:37;;;;;;;44.55;25.45;;;;;;;10.61;62.73;102130.66;4893828;28;120886;-92
2022/01/26 05:47:06;;;;;;;36.00;22.88;;;;;;;10.94;63.64;102183.88;4893326;28;123756;-89
2022/01/26 05:49:31;;;;;;;37.72;22.55;;;;;;;11.07;63.50;102196.59;4882729;28;119877;-83
2022/01/26 05:51:57;;;;;;;39.00;24.02;;;;;;;11.05;62.40;102190.75;4911798;28;120047;-89
2022/01/26 05:54:25;;;;;;;41.83;25.25;;;;;;;11.04;62.20;102178.22;4893485;28;120024;-89
2022/01/26 05:56:50;;;;;;;46.45;24.67;;;;;;;11.00;62.78;102177.50;4938714;28;119767;-89
2022/01/26 05:59:20;;;;;;;47.88;27.42;;;;;;;11.02;62.13;102182.56;4886844;28;124034;-86
2022/01/26 06:01:49;;;;;;;45.83;24.77;;;;;;;11.00;63.51;102176.72;4879286;28;119677;-88
2022/01/26 06:04:15;;;;;;;40.67;25.80;;;;;;;11.06;63.00;102192.28;4904413;28;120118;-86
2022/01/26 06:06:41;;;;;;;40.88;23.65;;;;;;;10.94;63.77;102181.13;4941905;28;120242;-84
2022/01/26 06:09:09;;;;;;;43.33;24.38;;;;;;;11.00;63.76;102187.69;4911365;28;119683;-87
2022/01/26 06:11:35;;;;;;;42.15;24.50;;;;;;;11.08;63.05;102183.63;4897256;28;122466;-86
2022/01/26 06:14:01;;;;;;;37.35;23.00;;;;;;;10.98;64.14;102162.63;4877481;28;119801;-88
2022/01/26 06:16:26;;;;;;;45.45;26.55;;;;;;;11.08;63.16;102167.94;4876778;28;121733;-88
2022/01/26 06:18:52;;;;;;;36.58;23.85;;;;;;;11.15;62.78;102193.75;4909762;28;123436;-87
2022/01/26 06:21:17;;;;;;;41.90;25.10;;;;;;;11.08;63.88;102176.19;4908996;28;119548;-88
2022/01/26 06:23:43;;;;;;;50.47;27.50;;;;;;;11.19;62.37;102186.22;4908517;28;120498;-87
2022/01/26 06:26:08;;;;;;;45.08;27.13;;;;;;;11.19;63.34;102183.47;4942755;28;120313;-87
2022/01/26 06:28:35;;;;;;;45.38;26.98;;;;;;;11.18;63.52;102174.47;4877387;28;119609;-86
2022/01/26 06:31:04;;;;;;;46.75;29.63;;;;;;;11.19;62.06;102180.72;4909713;28;121934;-86
2022/01/26 06:33:34;;;;;;;49.72;28.38;;;;;;;11.12;62.12;102167.09;4931037;28;123389;-86
2022/01/26 06:36:00;;;;;;;50.42;30.23;;;;;;;11.17;61.50;102174.88;4892522;28;121215;-87
2022/01/26 06:38:29;;;;;;;46.05;27.75;;;;;;;11.15;62.84;102183.53;4892452;28;123446;-87
2022/01/26 06:40:56;;;;;;;51.00;29.73;;;;;;;11.14;62.80;102171.00;4910624;28;119719;-87
2022/01/26 06:43:27;;;;;;;49.90;30.20;;;;;;;11.03;62.45;102160.19;4910879;28;122026;-87
2022/01/26 06:46:05;;;;;;;52.35;31.13;;;;;;;10.99;62.56;102151.22;4909007;28;120579;-89
2022/01/26 06:50:57;;;;;;;46.40;28.15;;;;;;;11.16;63.77;102176.84;4910907;28;122644;-86
2022/01/26 06:53:23;;;;;;;47.13;27.30;;;;;;;11.19;64.72;102172.50;4892714;28;123406;-88
2022/01/26 06:55:49;;;;;;;49.13;28.52;;;;;;;11.22;64.36;102188.91;4911813;28;119767;-86
2022/01/26 06:58:15;;;;;;;54.25;32.53;;;;;;;11.16;62.31;102165.09;4893267;28;123950;-87
2022/01/26 07:00:41;;;;;;;49.58;28.50;;;;;;;11.22;63.00;102174.41;4908623;28;119769;-90
2022/01/26 07:03:06;;;;;;;60.08;31.17;;;;;;;11.19;63.49;102184.25;4894286;28;123304;-86
2022/01/26 07:05:35;;;;;;;56.80;34.63;;;;;;;11.10;62.11;102164.78;4878236;28;123193;-88
2022/01/26 07:08:02;;;;;;;56.28;32.60;;;;;;;11.18;62.54;102173.69;4938340;28;120987;-87
2022/01/26 07:10:28;;;;;;;57.70;34.80;;;;;;;11.12;61.83;102167.09;4908550;28;120070;-87
2022/01/26 07:12:54;;;;;;;62.97;35.03;;;;;;;10.96;61.40;102143.84;4908456;28;120736;-87
2022/01/26 07:23:41;;;;;;;61.72;33.67;;;;;;;11.05;63.74;102149.56;4905908;28;120325;-86
2022/01/26 07:26:07;;;;;;;63.72;33.70;;;;;;;10.97;64.98;102128.13;4909107;28;119982;-84
2022/01/26 07:28:38;;;;;;;63.88;33.67;;;;;;;10.99;65.30;102125.75;4890644;28;120385;-89
2022/01/26 07:31:07;;;;;;;63.42;34.97;;;;;;;10.96;63.57;102110.88;4921787;28;122604;-85
2022/01/26 07:33:34;;;;;;;62.55;35.05;;;;;;;10.95;64.26;102112.06;4891542;28;123329;-86
2022/01/26 07:36:00;;;;;;;66.22;35.85;;;;;;;10.98;63.67;102135.94;4910679;28;119695;-89
2022/01/26 07:38:26;;;;;;;61.92;34.35;;;;;;;10.93;64.63;102114.47;4891927;28;122475;-87
2022/01/26 07:40:53;;;;;;;61.15;33.88;;;;;;;11.03;66.12;102137.44;4906224;28;123336;-86
2022/01/26 07:43:19;;;;;;;63.55;34.50;;;;;;;11.05;65.83;102140.53;4907538;28;121518;-87
2022/01/26 07:45:53;;;;;;;69.57;36.42;;;;;;;11.05;64.88;102127.59;4930256;28;121593;-86
2022/01/26 07:48:19;;;;;;;66.88;35.85;;;;;;;10.95;63.76;102125.03;4909171;28;119587;-89
2022/01/26 07:50:45;;;;;;;76.28;34.90;;;;;;;10.98;66.56;102124.19;4904088;28;121988;-89
2022/01/26 07:53:16;;;;;;;65.38;35.67;;;;;;;11.02;65.07;102125.69;4892531;28;121786;-87
2022/01/26 07:55:42;;;;;;;64.93;33.20;;;;;;;11.08;66.51;102140.47;4893054;28;120502;-90
2022/01/26 07:58:11;;;;;;;81.78;35.22;;;;;;;11.07;67.26;102122.44;4908728;28;120441;-89
2022/01/26 08:00:38;;;;;;;67.95;33.90;;;;;;;11.14;67.36;102129.81;4893646;28;123326;-88
2022/01/26 08:03:04;;;;;;;70.78;34.22;;;;;;;11.04;67.50;102120.53;4924454;28;119688;-88
2022/01/26 08:05:29;;;;;;;71.80;34.83;;;;;;;10.95;67.21;102103.06;4892822;28;120568;-89
2022/01/26 08:07:55;;;;;;;80.97;35.92;;;;;;;11.06;68.41;102123.66;4911753;28;121282;-88
2022/01/26 08:10:21;;;;;;;69.13;34.22;;;;;;;10.98;66.30;102118.69;4940070;28;119984;-89
2022/01/26 08:12:48;;;;;;;64.78;33.03;;;;;;;10.94;65.89;102128.97;4907318;28;123139;-88
2022/01/26 08:15:14;;;;;;;66.03;33.38;;;;;;;11.01;66.12;102134.34;4901877;28;120385;-87
2022/01/26 08:17:40;;;;;;;64.22;33.20;;;;;;;10.98;64.92;102137.91;4924653;28;120390;-88
2022/01/26 08:20:07;;;;;;;64.57;33.72;;;;;;;10.93;64.00;102139.19;4891635;28;121722;-89
2022/01/26 08:22:34;;;;;;;79.07;35.33;;;;;;;10.93;67.15;102136.44;4912379;28;120279;-88
2022/01/26 08:24:59;;;;;;;66.22;32.97;;;;;;;10.96;66.81;102151.28;4907958;28;120872;-90
2022/01/26 08:27:28;;;;;;;62.33;31.92;;;;;;;10.98;65.16;102154.41;4909233;28;120736;-90
2022/01/26 08:30:02;;;;;;;76.72;34.40;;;;;;;10.96;66.80;102145.81;4892484;28;122324;-88
2022/01/26 08:32:28;;;;;;;80.95;36.40;;;;;;;10.95;68.42;102145.03;4893729;28;124545;-89
2022/01/26 08:34:53;;;;;;;75.90;34.75;;;;;;;11.07;69.20;102155.41;4892558;28;120790;-90
2022/01/26 08:37:20;;;;;;;91.07;38.53;;;;;;;11.20;69.87;102163.06;4892068;28;122254;-90
2022/01/26 08:39:45;;;;;;;69.53;35.40;;;;;;;11.05;67.67;102129.56;4892770;28;123230;-87
2022/01/26 08:42:11;;;;;;;67.57;33.83;;;;;;;11.14;66.92;102135.31;4906916;28;119901;-88
2022/01/26 08:44:37;;;;;;;78.10;36.13;;;;;;;10.92;67.33;102099.19;4911674;28;121042;-88
2022/01/26 08:47:04;;;;;;;64.80;34.20;;;;;;;11.11;65.75;102118.88;4891755;28;119584;-89
2022/01/26 08:49:31;;;;;;;71.82;35.00;;;;;;;11.27;66.41;102124.47;4891472;28;122391;-87
2022/01/26 08:52:00;;;;;;;64.53;32.60;;;;;;;11.21;64.80;102120.66;4892247;28;123051;-89
2022/01/26 08:54:26;;;;;;;71.93;35.63;;;;;;;11.25;65.27;102126.88;4892687;28;120610;-88
2022/01/26 08:56:53;;;;;;;75.55;35.40;;;;;;;11.22;66.69;102119.47;4944299;28;119881;-91
2022/01/26 08:59:22;;;;;;;73.18;35.20;;;;;;;11.17;67.07;102114.47;4906007;28;123244;-90
2022/01/26 09:01:48;;;;;;;75.10;35.10;;;;;;;11.23;66.69;102123.75;4907821;28;120129;-88
2022/01/26 09:04:14;;;;;;;69.50;34.15;;;;;;;11.16;67.24;102112.91;4890852;28;120675;-89
2022/01/26 09:06:51;;;;;;;70.32;35.10;;;;;;;11.17;65.89;102114.47;4910228;28;121026;-87
2022/01/26 09:09:21;;;;;;;79.25;36.40;;;;;;;11.04;65.79;102095.06;4893176;28;121952;-90
2022/01/26 09:11:49;;;;;;;71.35;34.45;;;;;;;11.04;64.87;102106.03;4908140;28;120490;-88
2022/01/26 09:14:21;;;;;;;69.45;35.03;;;;;;;11.08;64.04;102115.75;4909540;28;119500;-87
2022/01/26 09:16:52;;;;;;;67.60;34.83;;;;;;;11.03;65.09;102113.50;4923250;28;123077;-87
2022/01/26 09:21:51;;;;;;;99.45;39.08;;;;;;;11.08;68.33;102107.53;4891574;28;120262;-88
2022/01/26 09:24:16;;;;;;;103.22;39.58;;;;;;;11.21;69.38;102123.41;4893338;28;122156;-88
2022/01/26 09:26:42;;;;;;;76.47;36.60;;;;;;;11.29;66.74;102133.06;4889575;28;120936;-88
2022/01/26 09:29:07;;;;;;;89.60;37.95;;;;;;;11.25;67.82;102116.66;4917541;28;121602;-85
2022/01/26 09:31:33;;;;;;;92.97;39.70;;;;;;;11.30;68.07;102126.38;4908856;28;123251;-88
2022/01/26 09:33:59;;;;;;;83.13;39.60;;;;;;;11.20;67.11;102114.41;4910351;28;120297;-87
2022/01/26 09:36:24;;;;;;;84.05;39.30;;;;;;;11.27;65.77;102135.47;4877616;28;122426;-89
2022/01/26 09:38:50;;;;;;;85.00;39.05;;;;;;;11.29;67.33;102141.31;4909822;28;123083;-88
2022/01/26 09:41:18;;;;;;;80.88;39.10;;;;;;;11.22;65.80;102128.47;4894529;28;119707;-86
2022/01/26 09:43:45;;;;;;;82.60;37.83;;;;;;;11.27;64.93;102147.22;4894788;28;122506;-87
2022/01/26 09:46:12;;;;;;;80.07;36.90;;;;;;;11.32;64.11;102160.47;4890764;28;123825;-88
2022/01/26 09:48:38;;;;;;;81.55;37.85;;;;;;;11.14;63.80;102132.56;4893373;28;121353;-88
2022/01/26 09:51:05;;;;;;;76.22;35.42;;;;;;;11.28;65.69;102154.25;4909657;28;120030;-87
2022/01/26 09:53:35;;;;;;;73.32;37.00;;;;;;;11.25;63.77;102143.34;4892642;28;120121;-87
2022/01/26 09:56:01;;;;;;;75.13;36.88;;;;;;;11.28;64.15;102132.28;4910676;28;120722;-86
2022/01/26 09:58:27;;;;;;;73.32;34.47;;;;;;;11.30;64.73;102131.88;4908493;28;121734;-87
2022/01/26 10:01:01;;;;;;;67.82;34.28;;;;;;;11.31;63.17;102147.94;4891413;28;121169;-87
2022/01/26 10:03:32;;;;;;;73.95;34.70;;;;;;;11.24;63.69;102133.56;4908237;28;122320;-89
2022/01/26 10:05:59;;;;;;;68.05;34.72;;;;;;;11.24;65.15;102117.84;4879415;28;123997;-88
2022/01/26 10:08:55;;;;;;;68.63;32.67;;;;;;;11.33;63.51;102133.78;4908239;28;120010;-90
2022/01/26 10:19:26;;;;;;;65.97;29.90;;;;;;;11.27;65.78;102111.50;4924785;28;123438;-90
2022/01/26 10:21:52;;;;;;;59.97;27.60;;;;;;;11.40;64.70;102136.41;4923335;28;121410;-88
2022/01/26 10:24:24;;;;;;;66.22;27.67;;;;;;;11.47;67.51;102141.75;4895101;28;119713;-88
2022/01/26 10:26:57;;;;;;;63.00;26.92;;;;;;;11.55;67.52;102132.19;4910775;28;123736;-88
2022/01/26 10:29:23;;;;;;;63.38;27.58;;;;;;;11.63;65.25;102139.13;4907017;28;121597;-88
2022/01/26 10:31:48;;;;;;;59.92;25.92;;;;;;;11.61;64.50;102136.00;4892023;28;122145;-90
2022/01/26 10:34:18;;;;;;;58.75;26.58;;;;;;;11.43;63.07;102108.09;4913318;28;120109;-90
2022/01/26 10:36:51;;;;;;;58.92;26.50;;;;;;;11.64;63.35;102117.91;4872200;28;123183;-88
2022/01/26 10:39:28;;;;;;;56.47;25.37;;;;;;;11.59;63.93;102104.63;4872286;28;123136;-89
2022/01/26 10:41:58;;;;;;;57.60;24.73;;;;;;;11.59;63.22;102101.88;4890654;28;119792;-86
2022/01/26 10:44:35;;;;;;;56.25;23.63;;;;;;;11.59;63.15;102102.69;4922727;28;121793;-89
2022/01/26 10:47:04;;;;;;;51.67;24.30;;;;;;;11.47;63.61;102088.78;4919858;28;123399;-87
2022/01/26 10:54:50;;;;;;;50.35;22.88;;;;;;;11.53;62.92;102087.09;4901993;28;122631;-87
2022/01/26 10:57:17;;;;;;;48.95;22.17;;;;;;;11.48;63.11;102082.88;4901966;28;120394;-91
2022/01/26 10:59:45;;;;;;;47.30;20.63;;;;;;;11.58;62.92;102083.84;4905589;28;120701;-89
2022/01/26 11:02:12;;;;;;;47.72;22.48;;;;;;;11.52;63.31;102064.31;4904523;28;119965;-90
2022/01/26 11:04:42;;;;;;;46.78;19.88;;;;;;;11.60;66.24;102074.00;4914279;28;121988;-89
2022/01/26 11:07:11;;;;;;;42.65;19.00;;;;;;;11.62;65.03;102071.59;4918701;28;122922;-90
2022/01/26 11:09:42;;;;;;;42.30;19.13;;;;;;;11.64;65.32;102065.69;4893509;28;123415;-89
2022/01/26 11:12:10;;;;;;;39.35;17.55;;;;;;;11.55;63.91;102036.00;4929637;28;119900;-89
2022/01/26 11:14:46;;;;;;;37.75;16.38;;;;;;;11.70;65.27;102063.97;4889492;28;123244;-88
2022/01/26 11:17:34;;;;;;;34.80;16.17;;;;;;;11.75;65.32;102060.72;4917204;28;120034;-86
2022/01/26 11:20:03;;;;;;;31.63;15.68;;;;;;;11.73;65.42;102052.13;4904197;28;119747;-90
2022/01/26 11:22:31;;;;;;;36.13;15.77;;;;;;;11.74;66.40;102037.19;4917112;28;120523;-92
2022/01/26 11:25:11;;;;;;;35.97;15.70;;;;;;;11.86;66.44;102052.28;4889672;28;122967;-90
2022/01/26 11:27:40;;;;;;;34.60;15.00;;;;;;;11.88;67.27;102034.16;4920591;28;123402;-87
2022/01/26 11:30:40;;;;;;;36.22;15.98;;;;;;;11.87;66.48;102032.63;4902196;28;121716;-91
2022/01/26 11:33:21;;;;;;;36.25;16.17;;;;;;;12.01;66.71;102023.25;4902849;28;121773;-89
2022/01/26 11:35:50;;;;;;;35.25;15.75;;;;;;;12.06;64.97;102042.00;4908127;28;123094;-87
2022/01/26 11:46:51;;;;;;;32.38;14.60;;;;;;;12.02;66.52;102035.81;4919991;28;122520;-89
2022/01/26 11:49:31;;;;;;;36.45;15.70;;;;;;;12.03;64.89;102020.84;4938570;28;122139;-87
2022/01/26 11:51:57;;;;;;;33.95;15.15;;;;;;;12.03;66.68;102026.34;4938421;28;120019;-91
2022/01/26 11:54:49;;;;;;;31.17;15.05;;;;;;;12.07;66.36;102018.06;4889358;28;122625;-92
2022/01/26 11:57:17;;;;;;;38.03;16.30;;;;;;;12.03;65.79;102018.09;4869886;28;123638;-90
2022/01/26 11:59:51;;;;;;;32.15;16.23;;;;;;;12.09;65.25;102015.66;4907042;28;119974;-90
2022/01/26 12:02:35;;;;;;;35.78;15.73;;;;;;;12.17;66.73;102019.78;4906755;28;122614;-89
2022/01/26 12:05:06;;;;;;;34.67;16.42;;;;;;;12.19;65.20;102012.63;4904979;28;120543;-88
2022/01/26 12:07:32;;;;;;;48.45;19.50;;;;;;;12.17;67.79;102012.28;4877144;28;121804;-87
2022/01/26 12:09:57;;;;;;;51.63;19.92;;;;;;;12.17;68.74;102009.53;4906174;28;121669;-88
2022/01/26 12:12:24;;;;;;;43.88;18.23;;;;;;;12.23;67.21;102013.31;4890011;28;119829;-89
2022/01/26 12:15:18;;;;;;;37.40;17.83;;;;;;;12.26;68.61;102003.44;4874731;28;123102;-90
2022/01/26 12:18:01;;;;;;;47.53;20.98;;;;;;;12.30;69.27;101998.59;4919635;28;120497;-90
2022/01/26 12:45:21;;;;;;;36.33;15.77;;;;;;;12.16;67.03;101980.47;4889563;28;124995;-88
2022/01/26 12:47:48;;;;;;;40.72;16.92;;;;;;;12.15;68.47;101962.44;4919583;28;123495;-86
2022/01/26 12:50:14;;;;;;;37.65;16.95;;;;;;;12.24;67.98;101968.09;4904983;28;120432;-88
2022/01/26 12:52:45;;;;;;;43.38;18.55;;;;;;;12.18;69.50;101952.53;4925944;28;121977;-88
2022/01/26 12:55:23;;;;;;;38.03;16.23;;;;;;;12.33;69.38;101963.97;4873388;28;120365;-87
2022/01/26 12:58:09;;;;;;;37.33;16.77;;;;;;;12.29;68.11;101955.78;4890309;28;122408;-88
2022/01/26 13:00:40;;;;;;;49.50;19.00;;;;;;;12.23;70.85;101936.28;4851125;28;122774;-88
2022/01/26 13:03:13;;;;;;;41.90;17.55;;;;;;;12.24;71.57;101943.34;4865182;28;121135;-88
2022/01/26 13:05:40;;;;;;;40.58;17.38;;;;;;;12.39;70.91;101943.75;4881073;28;122486;-87
2022/01/26 13:08:07;;;;;;;38.70;17.00;;;;;;;12.44;69.80;101945.22;4868557;28;120714;-88
2022/01/26 13:10:34;;;;;;;38.47;16.88;;;;;;;12.48;69.63;101934.88;4837844;28;119891;-88
2022/01/26 13:13:18;;;;;;;35.92;15.88;;;;;;;12.50;68.85;101946.22;4869713;28;121030;-88
2022/01/26 13:16:10;;;;;;;41.75;16.92;;;;;;;12.44;68.73;101928.69;4887957;28;125352;-90
2022/01/26 13:24:26;;;;;;;40.72;15.68;;;;;;;12.44;69.31;101912.19;4853661;28;119874;-89
2022/01/26 13:27:19;;;;;;;41.22;16.98;;;;;;;12.49;70.26;101919.91;4869508;28;122257;-87
2022/01/26 13:30:27;;;;;;;36.25;15.05;;;;;;;12.53;70.61;101920.59;4886510;28;120233;-88
2022/01/26 13:33:04;;;;;;;36.90;16.40;;;;;;;12.49;70.51;101915.19;4837422;28;120332;-90
2022/01/26 13:36:00;;;;;;;42.05;17.00;;;;;;;12.54;70.75;101916.66;4854000;28;120320;-88
2022/01/26 13:48:49;;;;;;;;;;;;;;;;;;;;;
2022/01/26 13:53:20;;;;;;;38.88;14.32;;;;;;;12.33;70.54;101884.19;4888783;28;121429;-88
2022/01/26 14:01:02;;;;;;;38.72;15.23;;;;;;;12.49;71.52;101922.66;4889133;28;122022;-90
2022/01/26 14:03:31;;;;;;;33.67;13.38;;;;;;;12.47;69.25;101908.56;4911603;28;122519;-88
2022/01/26 14:06:00;;;;;;;34.40;14.15;;;;;;;12.54;69.93;101911.91;4924549;28;121688;-87
2022/01/26 14:08:28;;;;;;;38.95;14.68;;;;;;;12.42;71.83;101898.09;4889128;28;121668;-88
2022/01/26 14:10:54;;;;;;;37.95;13.88;;;;;;;12.41;70.29;101894.56;4913666;28;123018;-89